Terminal Aerodrome Forecast
Issued by NWS

Home | Current Version | Previous Version | Text Only | Print | Product List | Glossary On
Versions: 1 2 3 4 5 6 7 8 9 10 11 12 13 14 15 16 17 18 19 20 21 22 23 24 25 26
000
FTUS45 KPSR 181800 AAB
TAFPHX
TAF AMD
KPHX 181840Z 1819/1918 17012KT P6SM SCT100 BKN150 BKN200
      TEMPO 1819/1821 18015G25KT P6SM -RA FEW070 BKN100 OVC150
     FM190200 VRB06KT P6SM SCT080 SCT120 BKN200
     FM190800 10005KT P6SM VCSH SCT080 BKN100 BKN200=

USA.gov is the U.S. government's official web portal to all federal, state and local government web resources and services.